DLH1955 EDDB-EDDF
Flight info
| Callsign | DLH1955 |
|---|---|
| Flight time | N/A |
| Altitude | 23000 |
| Route | KISUC1N KISUC Z117 ODLUN/N0440F240 DCT ORTAG/N0428F220 T177 ODIPI/N0422F210 T157 KERAX KERAX5D |
| Aircraft | A359/H-SDE2E3GHIJ3J4J5LM1ORWXY/LB1D1 |
Departure
| Time | 2026-05-01 10:01 |
|---|---|
| Airport | Berlin Brandenburg Airport (EDDB) |
Arrival
| Time | N/A |
|---|---|
| Airport | Frankfurt Main Airport (EDDF) |
| Time | Latitude | Longitude | Altitude | Speed | Heading |
|---|---|---|---|---|---|
| 2026-05-01 09:54 | 52.36411 | 13.50412 | 161 ft | 0 kts | 159° |
| 2026-05-01 09:56 | 52.36401 | 13.50420 | 161 ft | 6 kts | 153° |
| 2026-05-01 09:56 | 52.36331 | 13.50473 | 161 ft | 13 kts | 155° |
| 2026-05-01 09:56 | 52.36233 | 13.50546 | 161 ft | 17 kts | 155° |
| 2026-05-01 09:57 | 52.36117 | 13.50611 | 161 ft | 20 kts | 166° |
| 2026-05-01 09:57 | 52.35982 | 13.50682 | 161 ft | 21 kts | 153° |
| 2026-05-01 09:57 | 52.35855 | 13.50776 | 163 ft | 9 kts | 157° |
| 2026-05-01 09:57 | 52.35827 | 13.50841 | 161 ft | 4 kts | 82° |
| 2026-05-01 09:58 | 52.35840 | 13.50905 | 161 ft | 8 kts | 70° |
| 2026-05-01 09:58 | 52.35863 | 13.51008 | 161 ft | 12 kts | 70° |
| 2026-05-01 09:58 | 52.35897 | 13.51151 | 161 ft | 15 kts | 69° |
| 2026-05-01 09:58 | 52.35940 | 13.51329 | 161 ft | 18 kts | 69° |
| 2026-05-01 09:59 | 52.35991 | 13.51541 | 161 ft | 22 kts | 68° |
| 2026-05-01 09:59 | 52.36050 | 13.51784 | 161 ft | 24 kts | 69° |
| 2026-05-01 09:59 | 52.36079 | 13.51914 | 161 ft | 10 kts | 69° |
| 2026-05-01 09:59 | 52.36106 | 13.52039 | 161 ft | 13 kts | 75° |
| 2026-05-01 10:00 | 52.36076 | 13.52170 | 161 ft | 13 kts | 159° |
| 2026-05-01 10:00 | 52.35996 | 13.52191 | 161 ft | 15 kts | 167° |
| 2026-05-01 10:00 | 52.35907 | 13.52242 | 161 ft | 17 kts | 154° |
| 2026-05-01 10:00 | 52.35811 | 13.52214 | 161 ft | 12 kts | 245° |
| 2026-05-01 10:01 | 52.35771 | 13.52026 | 161 ft | 31 kts | 250° |
| 2026-05-01 10:01 | 52.35595 | 13.51274 | 163 ft | 110 kts | 248° |
| 2026-05-01 10:01 | 52.35228 | 13.49704 | 221 ft | 172 kts | 251° |
| 2026-05-01 10:01 | 52.34827 | 13.47920 | 1114 ft | 164 kts | 252° |
| 2026-05-01 10:02 | 52.34445 | 13.46103 | 1834 ft | 174 kts | 253° |
| 2026-05-01 10:02 | 52.34054 | 13.44206 | 2407 ft | 178 kts | 258° |
| 2026-05-01 10:02 | 52.34096 | 13.42188 | 2874 ft | 182 kts | 292° |
| 2026-05-01 10:02 | 52.34564 | 13.40213 | 3331 ft | 193 kts | 293° |
| 2026-05-01 10:03 | 52.34617 | 13.37973 | 3752 ft | 203 kts | 257° |
| 2026-05-01 10:03 | 52.33906 | 13.36021 | 4459 ft | 200 kts | 227° |
| 2026-05-01 10:03 | 52.32914 | 13.34478 | 5078 ft | 200 kts | 222° |
| 2026-05-01 10:03 | 52.31860 | 13.32963 | 5669 ft | 204 kts | 222° |
| 2026-05-01 10:04 | 52.30770 | 13.31432 | 6165 ft | 211 kts | 220° |
| 2026-05-01 10:04 | 52.29458 | 13.30181 | 6467 ft | 227 kts | 204° |
| 2026-05-01 10:04 | 52.27961 | 13.29198 | 6886 ft | 235 kts | 200° |
| 2026-05-01 10:04 | 52.26408 | 13.28266 | 7378 ft | 240 kts | 200° |
| 2026-05-01 10:05 | 52.24906 | 13.27045 | 7891 ft | 245 kts | 215° |
| 2026-05-01 10:05 | 52.23832 | 13.24882 | 8424 ft | 251 kts | 244° |
| 2026-05-01 10:05 | 52.23124 | 13.22216 | 8696 ft | 270 kts | 250° |
| 2026-05-01 10:05 | 52.22420 | 13.19257 | 9029 ft | 288 kts | 250° |
| 2026-05-01 10:06 | 52.21672 | 13.16162 | 9559 ft | 297 kts | 250° |
| 2026-05-01 10:06 | 52.20895 | 13.13005 | 10206 ft | 303 kts | 249° |
| 2026-05-01 10:06 | 52.20097 | 13.09805 | 10788 ft | 308 kts | 249° |
| 2026-05-01 10:06 | 52.19278 | 13.06548 | 11364 ft | 313 kts | 249° |
| 2026-05-01 10:07 | 52.18448 | 13.03255 | 11973 ft | 317 kts | 249° |
| 2026-05-01 10:07 | 52.17602 | 12.99911 | 12563 ft | 321 kts | 249° |
| 2026-05-01 10:07 | 52.16755 | 12.96517 | 13187 ft | 325 kts | 250° |
| 2026-05-01 10:07 | 52.16111 | 12.93011 | 13693 ft | 334 kts | 258° |
| 2026-05-01 10:08 | 52.15044 | 12.85280 | 14301 ft | 361 kts | 258° |
| 2026-05-01 10:08 | 52.14483 | 12.81227 | 14576 ft | 372 kts | 258° |
| 2026-05-01 10:08 | 52.13901 | 12.77067 | 14865 ft | 383 kts | 258° |
| 2026-05-01 10:09 | 52.13300 | 12.72810 | 15237 ft | 389 kts | 258° |